Etusivu
METAR-TAF:

METAR-TAF

Lentoasemat :

Livingstone, Sambia

Leveyspiiri: 17-49-18S, Pituuspiiri: 025-49-22E, korkeus merenpinnasta: 991 m

METAR: puuttuu

Aika: 21:59 (19:59 UTC)

Sääennuste

Tämä raportti tehtiin 9 tuntia ja 59 minuuttia sitten, kello 10.00 UTC
Ennuste voimassa 22. päivästä klo 12 UTC - 23. päivään klo 18 UTC
Tuuli 5 kn idästä
Näkyvyys 10 km tai enemmän
ei pilviä alle 1500 m:ssä eikä cumulonimbus-pilviä
Tulossa
22. päivästä klo 18 UTC - 22. päivään klo 20 UTC
Tuuli 10 kn idästä/kaakosta
Tulossa
23. päivästä klo 06 UTC - 23. päivään klo 08 UTC
Tuuli 5 kn idästä
Tulossa
23. päivästä klo 12 UTC - 23. päivään klo 14 UTC
Tuuli 10 kn idästä/koillisesta puuskistuen 15 kn:hen

TAF: FLHN 221000Z 2212/2318 08005KT CAVOK BECMG 2218/2220 12010KT BECMG 2306/2308 09005KT BECMG 2312/2314 06010G15KT

Säähavainnot ja -ennusteet yli 4000 lentoasemalta (METAR- ja TAF-raportit).

Käytössä olevat sääasemat on merkitty karttaan keltaisilla ja punaisilla pisteillä.

Aseta hiiri pisteen päälle nähdäksesi sääaseman nimen.

Klikkaa sitten nähdäksesi säähavainnot ja -ennusteet.

Kartan vaihtaminen: klikkaa mustalla rastilla varustettuja vihreitä pisteitä, niin voit zoomata sisään; viivalla varustettua vihreää pistettä, niin voit zoomata ulos tai vihreitä nuolia, niin pääset viereisille kartoille.


METAR-TAF: